TAF LELN
LELN 082000Z 0821/0921 27012KT 9999 SCT020 BKN045 TX10/0915Z TN00/0906Z TEMPO 0821/0903 2000 SN SNRA BKN005 SCT025TCU TEMPO 0903/0915 3000 SHRA RA SCT012 SCT025TCU TEMPO 0900/0910 3500 BR TEMPO 0910/0917 28012G25KT TEMPO 0919/0921 1500 BR BCFG BKN003 PROB40 TEMPO 0920/0921 0150 FG VV001=
METAR LELN
LELN 082200Z AUTO 26009KT 9999 FEW049 00/M00 Q1016=
LELN 082130Z AUTO 26010KT CAVOK 00/M00 Q1016=
LELN 082100Z AUTO 26012KT CAVOK 00/M00 Q1015=
LELN 082030Z AUTO 25008KT 9999 FEW043 M00/M01 Q1015=
LELN 082000Z 28005KT 250V320 9999 FEW008 00/M01 Q1015=
WC LELN
WS LELN
WV LELN